sensor_id;sensor_type;location;lat;lon;timestamp;P1;durP1;ratioP1;P2;durP2;ratioP2
26696;SDS011;14312;52.614;13.496;2024-03-06T00:01:24;6.82;;;5.70;;
26696;SDS011;14312;52.614;13.496;2024-03-06T00:04:10;5.95;;;5.35;;
26696;SDS011;14312;52.614;13.496;2024-03-06T00:06:56;5.40;;;4.90;;
26696;SDS011;14312;52.614;13.496;2024-03-06T00:09:43;6.13;;;5.35;;
26696;SDS011;14312;52.614;13.496;2024-03-06T00:12:30;6.22;;;5.63;;
26696;SDS011;14312;52.614;13.496;2024-03-06T00:15:16;6.25;;;5.30;;
26696;SDS011;14312;52.614;13.496;2024-03-06T00:18:02;5.80;;;5.28;;
26696;SDS011;14312;52.614;13.496;2024-03-06T00:20:49;7.07;;;5.80;;
26696;SDS011;14312;52.614;13.496;2024-03-06T00:23:35;6.43;;;5.53;;
26696;SDS011;14312;52.614;13.496;2024-03-06T00:26:22;7.15;;;5.70;;
26696;SDS011;14312;52.614;13.496;2024-03-06T00:29:08;6.63;;;5.93;;
26696;SDS011;14312;52.614;13.496;2024-03-06T00:31:55;5.80;;;5.20;;
26696;SDS011;14312;52.614;13.496;2024-03-06T00:34:41;7.13;;;5.70;;
26696;SDS011;14312;52.614;13.496;2024-03-06T00:37:27;5.90;;;5.30;;
26696;SDS011;14312;52.614;13.496;2024-03-06T00:40:13;7.40;;;5.97;;
26696;SDS011;14312;52.614;13.496;2024-03-06T00:42:59;6.18;;;5.57;;
26696;SDS011;14312;52.614;13.496;2024-03-06T00:45:45;6.53;;;5.82;;
26696;SDS011;14312;52.614;13.496;2024-03-06T00:48:31;8.07;;;7.10;;
26696;SDS011;14312;52.614;13.496;2024-03-06T00:51:17;7.55;;;6.70;;
26696;SDS011;14312;52.614;13.496;2024-03-06T00:54:03;7.07;;;6.20;;
26696;SDS011;14312;52.614;13.496;2024-03-06T00:56:50;7.28;;;5.80;;
26696;SDS011;14312;52.614;13.496;2024-03-06T00:59:36;6.63;;;5.50;;
26696;SDS011;14312;52.614;13.496;2024-03-06T01:02:22;6.60;;;5.40;;
26696;SDS011;14312;52.614;13.496;2024-03-06T01:05:08;6.00;;;5.40;;
26696;SDS011;14312;52.614;13.496;2024-03-06T01:07:54;5.97;;;4.95;;
26696;SDS011;14312;52.614;13.496;2024-03-06T01:10:42;6.20;;;5.53;;
26696;SDS011;14312;52.614;13.496;2024-03-06T01:13:28;5.25;;;4.75;;
26696;SDS011;14312;52.614;13.496;2024-03-06T01:16:14;6.05;;;5.10;;
26696;SDS011;14312;52.614;13.496;2024-03-06T01:19:00;6.13;;;5.53;;
26696;SDS011;14312;52.614;13.496;2024-03-06T01:21:46;7.10;;;5.43;;
26696;SDS011;14312;52.614;13.496;2024-03-06T01:24:34;5.85;;;5.10;;
26696;SDS011;14312;52.614;13.496;2024-03-06T01:27:20;5.88;;;5.28;;
26696;SDS011;14312;52.614;13.496;2024-03-06T01:30:06;5.68;;;5.18;;
26696;SDS011;14312;52.614;13.496;2024-03-06T01:32:52;6.00;;;4.97;;
26696;SDS011;14312;52.614;13.496;2024-03-06T01:35:39;6.28;;;5.60;;
26696;SDS011;14312;52.614;13.496;2024-03-06T01:38:25;5.68;;;4.70;;
26696;SDS011;14312;52.614;13.496;2024-03-06T01:41:11;5.72;;;4.75;;
26696;SDS011;14312;52.614;13.496;2024-03-06T01:43:57;6.55;;;5.03;;
26696;SDS011;14312;52.614;13.496;2024-03-06T01:46:43;6.25;;;5.32;;
26696;SDS011;14312;52.614;13.496;2024-03-06T01:49:33;5.82;;;5.07;;
26696;SDS011;14312;52.614;13.496;2024-03-06T01:52:19;5.75;;;4.80;;
26696;SDS011;14312;52.614;13.496;2024-03-06T01:55:07;5.72;;;4.63;;
26696;SDS011;14312;52.614;13.496;2024-03-06T01:57:54;5.05;;;4.47;;
26696;SDS011;14312;52.614;13.496;2024-03-06T02:00:40;5.82;;;4.63;;
26696;SDS011;14312;52.614;13.496;2024-03-06T02:03:27;6.68;;;5.25;;
26696;SDS011;14312;52.614;13.496;2024-03-06T02:06:15;5.43;;;4.85;;
26696;SDS011;14312;52.614;13.496;2024-03-06T02:09:05;5.75;;;5.03;;
26696;SDS011;14312;52.614;13.496;2024-03-06T02:11:52;5.03;;;4.53;;
26696;SDS011;14312;52.614;13.496;2024-03-06T02:14:39;6.18;;;4.95;;
26696;SDS011;14312;52.614;13.496;2024-03-06T02:17:25;6.32;;;5.15;;
26696;SDS011;14312;52.614;13.496;2024-03-06T02:20:11;4.50;;;4.07;;
26696;SDS011;14312;52.614;13.496;2024-03-06T02:22:59;5.30;;;4.80;;
26696;SDS011;14312;52.614;13.496;2024-03-06T02:25:45;5.28;;;4.72;;
26696;SDS011;14312;52.614;13.496;2024-03-06T02:28:33;4.97;;;4.47;;
26696;SDS011;14312;52.614;13.496;2024-03-06T02:31:21;5.40;;;4.85;;
26696;SDS011;14312;52.614;13.496;2024-03-06T02:34:08;6.15;;;4.65;;
26696;SDS011;14312;52.614;13.496;2024-03-06T02:36:55;6.32;;;5.03;;
26696;SDS011;14312;52.614;13.496;2024-03-06T02:39:42;4.78;;;4.13;;
26696;SDS011;14312;52.614;13.496;2024-03-06T02:42:27;6.37;;;4.87;;
26696;SDS011;14312;52.614;13.496;2024-03-06T02:45:14;5.65;;;4.78;;
26696;SDS011;14312;52.614;13.496;2024-03-06T02:48:00;6.15;;;5.00;;
26696;SDS011;14312;52.614;13.496;2024-03-06T02:50:46;6.07;;;5.00;;
26696;SDS011;14312;52.614;13.496;2024-03-06T02:53:32;5.85;;;5.10;;
26696;SDS011;14312;52.614;13.496;2024-03-06T02:56:19;6.40;;;5.20;;
26696;SDS011;14312;52.614;13.496;2024-03-06T02:59:05;5.03;;;4.50;;
26696;SDS011;14312;52.614;13.496;2024-03-06T03:01:51;5.53;;;5.00;;
26696;SDS011;14312;52.614;13.496;2024-03-06T03:04:37;5.68;;;4.68;;
26696;SDS011;14312;52.614;13.496;2024-03-06T03:07:23;6.35;;;5.00;;
26696;SDS011;14312;52.614;13.496;2024-03-06T03:10:09;6.47;;;4.93;;
26696;SDS011;14312;52.614;13.496;2024-03-06T03:12:56;5.85;;;4.75;;
26696;SDS011;14312;52.614;13.496;2024-03-06T03:15:42;5.80;;;4.43;;
26696;SDS011;14312;52.614;13.496;2024-03-06T03:18:28;5.55;;;4.78;;
26696;SDS011;14312;52.614;13.496;2024-03-06T03:21:14;5.00;;;4.40;;
26696;SDS011;14312;52.614;13.496;2024-03-06T03:24:01;5.88;;;4.75;;
26696;SDS011;14312;52.614;13.496;2024-03-06T03:26:47;6.00;;;4.95;;
26696;SDS011;14312;52.614;13.496;2024-03-06T03:29:33;6.25;;;5.40;;
26696;SDS011;14312;52.614;13.496;2024-03-06T03:32:18;5.65;;;5.05;;
26696;SDS011;14312;52.614;13.496;2024-03-06T03:35:05;5.55;;;5.03;;
26696;SDS011;14312;52.614;13.496;2024-03-06T03:37:52;6.10;;;5.15;;
26696;SDS011;14312;52.614;13.496;2024-03-06T03:40:38;5.88;;;4.72;;
26696;SDS011;14312;52.614;13.496;2024-03-06T03:43:24;6.07;;;5.15;;
26696;SDS011;14312;52.614;13.496;2024-03-06T03:46:10;5.82;;;4.72;;
26696;SDS011;14312;52.614;13.496;2024-03-06T03:48:56;6.13;;;4.77;;
26696;SDS011;14312;52.614;13.496;2024-03-06T03:51:42;5.78;;;4.97;;
26696;SDS011;14312;52.614;13.496;2024-03-06T03:54:28;5.13;;;4.63;;
26696;SDS011;14312;52.614;13.496;2024-03-06T03:57:14;5.45;;;4.50;;
26696;SDS011;14312;52.614;13.496;2024-03-06T04:00:00;5.30;;;4.60;;
26696;SDS011;14312;52.614;13.496;2024-03-06T04:02:46;5.18;;;4.53;;
26696;SDS011;14312;52.614;13.496;2024-03-06T04:05:32;5.82;;;4.85;;
26696;SDS011;14312;52.614;13.496;2024-03-06T04:08:18;6.35;;;4.85;;
26696;SDS011;14312;52.614;13.496;2024-03-06T04:11:04;5.57;;;4.50;;
26696;SDS011;14312;52.614;13.496;2024-03-06T04:13:50;6.18;;;4.60;;
26696;SDS011;14312;52.614;13.496;2024-03-06T04:16:36;5.50;;;4.68;;
26696;SDS011;14312;52.614;13.496;2024-03-06T04:19:22;6.10;;;4.53;;
26696;SDS011;14312;52.614;13.496;2024-03-06T04:22:08;5.60;;;4.97;;
26696;SDS011;14312;52.614;13.496;2024-03-06T04:24:54;7.72;;;5.05;;
26696;SDS011;14312;52.614;13.496;2024-03-06T04:27:41;5.40;;;4.77;;
26696;SDS011;14312;52.614;13.496;2024-03-06T04:30:27;5.87;;;4.67;;
26696;SDS011;14312;52.614;13.496;2024-03-06T04:33:13;5.90;;;5.30;;
26696;SDS011;14312;52.614;13.496;2024-03-06T04:36:01;5.93;;;5.27;;
26696;SDS011;14312;52.614;13.496;2024-03-06T04:38:48;5.80;;;5.10;;
26696;SDS011;14312;52.614;13.496;2024-03-06T04:41:34;6.23;;;5.23;;
26696;SDS011;14312;52.614;13.496;2024-03-06T04:44:20;7.15;;;5.32;;
26696;SDS011;14312;52.614;13.496;2024-03-06T04:47:06;5.78;;;5.00;;
26696;SDS011;14312;52.614;13.496;2024-03-06T04:49:52;6.77;;;5.37;;
26696;SDS011;14312;52.614;13.496;2024-03-06T04:52:38;6.60;;;5.37;;
26696;SDS011;14312;52.614;13.496;2024-03-06T04:55:24;6.65;;;5.40;;
26696;SDS011;14312;52.614;13.496;2024-03-06T04:58:11;6.90;;;5.43;;
26696;SDS011;14312;52.614;13.496;2024-03-06T05:00:58;6.27;;;5.17;;
26696;SDS011;14312;52.614;13.496;2024-03-06T05:03:44;7.85;;;5.80;;
26696;SDS011;14312;52.614;13.496;2024-03-06T05:06:30;6.77;;;5.80;;
26696;SDS011;14312;52.614;13.496;2024-03-06T05:09:15;7.22;;;5.47;;
26696;SDS011;14312;52.614;13.496;2024-03-06T05:12:02;6.87;;;5.77;;
26696;SDS011;14312;52.614;13.496;2024-03-06T05:14:54;6.65;;;5.68;;
26696;SDS011;14312;52.614;13.496;2024-03-06T05:17:40;6.53;;;5.17;;
26696;SDS011;14312;52.614;13.496;2024-03-06T05:20:26;6.32;;;5.53;;
26696;SDS011;14312;52.614;13.496;2024-03-06T05:23:13;6.25;;;5.53;;
26696;SDS011;14312;52.614;13.496;2024-03-06T05:26:00;6.17;;;5.57;;
26696;SDS011;14312;52.614;13.496;2024-03-06T05:28:46;7.47;;;5.82;;
26696;SDS011;14312;52.614;13.496;2024-03-06T05:31:32;7.70;;;5.40;;
26696;SDS011;14312;52.614;13.496;2024-03-06T05:34:18;7.27;;;5.50;;
26696;SDS011;14312;52.614;13.496;2024-03-06T05:37:04;7.55;;;6.15;;
26696;SDS011;14312;52.614;13.496;2024-03-06T05:39:51;8.47;;;6.20;;
26696;SDS011;14312;52.614;13.496;2024-03-06T05:42:37;9.07;;;6.27;;
26696;SDS011;14312;52.614;13.496;2024-03-06T05:45:24;7.50;;;6.23;;
26696;SDS011;14312;52.614;13.496;2024-03-06T05:48:10;7.20;;;5.63;;
26696;SDS011;14312;52.614;13.496;2024-03-06T05:50:55;7.40;;;5.83;;
26696;SDS011;14312;52.614;13.496;2024-03-06T05:53:41;7.07;;;5.85;;
26696;SDS011;14312;52.614;13.496;2024-03-06T05:56:29;6.80;;;6.10;;
26696;SDS011;14312;52.614;13.496;2024-03-06T05:59:15;7.27;;;5.97;;
26696;SDS011;14312;52.614;13.496;2024-03-06T06:02:01;7.80;;;5.87;;
26696;SDS011;14312;52.614;13.496;2024-03-06T06:04:49;8.30;;;6.23;;
26696;SDS011;14312;52.614;13.496;2024-03-06T06:07:35;6.87;;;5.87;;
26696;SDS011;14312;52.614;13.496;2024-03-06T06:10:23;7.25;;;5.63;;
26696;SDS011;14312;52.614;13.496;2024-03-06T06:13:09;7.70;;;6.22;;
26696;SDS011;14312;52.614;13.496;2024-03-06T06:15:57;6.45;;;5.65;;
26696;SDS011;14312;52.614;13.496;2024-03-06T06:18:43;9.13;;;6.05;;
26696;SDS011;14312;52.614;13.496;2024-03-06T06:21:30;7.25;;;6.03;;
26696;SDS011;14312;52.614;13.496;2024-03-06T06:24:16;7.77;;;6.67;;
26696;SDS011;14312;52.614;13.496;2024-03-06T06:27:02;9.85;;;6.70;;
26696;SDS011;14312;52.614;13.496;2024-03-06T06:29:48;8.50;;;7.03;;
26696;SDS011;14312;52.614;13.496;2024-03-06T06:32:34;8.97;;;7.10;;
26696;SDS011;14312;52.614;13.496;2024-03-06T06:35:20;8.00;;;6.35;;
26696;SDS011;14312;52.614;13.496;2024-03-06T06:38:06;9.00;;;7.00;;
26696;SDS011;14312;52.614;13.496;2024-03-06T06:40:52;8.20;;;6.67;;
26696;SDS011;14312;52.614;13.496;2024-03-06T06:43:38;8.43;;;6.47;;
26696;SDS011;14312;52.614;13.496;2024-03-06T06:46:25;8.30;;;6.45;;
26696;SDS011;14312;52.614;13.496;2024-03-06T06:49:11;8.40;;;6.88;;
26696;SDS011;14312;52.614;13.496;2024-03-06T06:51:57;7.32;;;6.53;;
26696;SDS011;14312;52.614;13.496;2024-03-06T06:54:43;9.53;;;6.87;;
26696;SDS011;14312;52.614;13.496;2024-03-06T06:57:29;8.73;;;7.20;;
26696;SDS011;14312;52.614;13.496;2024-03-06T07:00:15;7.55;;;6.05;;
26696;SDS011;14312;52.614;13.496;2024-03-06T07:03:04;7.72;;;5.82;;
26696;SDS011;14312;52.614;13.496;2024-03-06T07:05:50;10.07;;;6.73;;
26696;SDS011;14312;52.614;13.496;2024-03-06T07:08:36;8.37;;;6.77;;
26696;SDS011;14312;52.614;13.496;2024-03-06T07:11:23;7.45;;;6.60;;
26696;SDS011;14312;52.614;13.496;2024-03-06T07:14:09;8.35;;;6.82;;
26696;SDS011;14312;52.614;13.496;2024-03-06T07:16:55;7.50;;;6.60;;
26696;SDS011;14312;52.614;13.496;2024-03-06T07:19:41;8.00;;;6.70;;
26696;SDS011;14312;52.614;13.496;2024-03-06T07:22:27;7.88;;;6.80;;
26696;SDS011;14312;52.614;13.496;2024-03-06T07:25:13;7.20;;;6.50;;
26696;SDS011;14312;52.614;13.496;2024-03-06T07:27:59;8.43;;;6.65;;
26696;SDS011;14312;52.614;13.496;2024-03-06T07:30:45;8.35;;;6.93;;
26696;SDS011;14312;52.614;13.496;2024-03-06T07:33:31;8.07;;;6.57;;
26696;SDS011;14312;52.614;13.496;2024-03-06T07:36:20;7.63;;;6.50;;
26696;SDS011;14312;52.614;13.496;2024-03-06T07:39:07;7.65;;;6.40;;
26696;SDS011;14312;52.614;13.496;2024-03-06T07:41:53;7.03;;;6.15;;
26696;SDS011;14312;52.614;13.496;2024-03-06T07:44:40;8.38;;;6.13;;
26696;SDS011;14312;52.614;13.496;2024-03-06T07:47:26;8.00;;;6.20;;
26696;SDS011;14312;52.614;13.496;2024-03-06T07:50:12;7.57;;;6.13;;
26696;SDS011;14312;52.614;13.496;2024-03-06T07:53:04;8.50;;;6.55;;
26696;SDS011;14312;52.614;13.496;2024-03-06T07:55:50;7.18;;;6.35;;
26696;SDS011;14312;52.614;13.496;2024-03-06T07:58:36;6.53;;;5.75;;
26696;SDS011;14312;52.614;13.496;2024-03-06T08:01:22;7.50;;;6.65;;
26696;SDS011;14312;52.614;13.496;2024-03-06T08:04:08;7.32;;;6.57;;
26696;SDS011;14312;52.614;13.496;2024-03-06T08:06:54;7.25;;;6.05;;
26696;SDS011;14312;52.614;13.496;2024-03-06T08:09:40;7.88;;;6.72;;
26696;SDS011;14312;52.614;13.496;2024-03-06T08:12:26;8.18;;;6.40;;
26696;SDS011;14312;52.614;13.496;2024-03-06T08:15:12;6.65;;;5.95;;
26696;SDS011;14312;52.614;13.496;2024-03-06T08:17:59;7.05;;;6.25;;
26696;SDS011;14312;52.614;13.496;2024-03-06T08:20:45;7.28;;;6.50;;
26696;SDS011;14312;52.614;13.496;2024-03-06T08:23:31;7.65;;;6.85;;
26696;SDS011;14312;52.614;13.496;2024-03-06T08:26:18;6.57;;;5.97;;
26696;SDS011;14312;52.614;13.496;2024-03-06T08:29:04;6.38;;;5.78;;
26696;SDS011;14312;52.614;13.496;2024-03-06T08:31:52;6.95;;;6.00;;
26696;SDS011;14312;52.614;13.496;2024-03-06T08:34:38;6.78;;;6.13;;
26696;SDS011;14312;52.614;13.496;2024-03-06T08:37:24;7.45;;;6.60;;
26696;SDS011;14312;52.614;13.496;2024-03-06T08:40:11;6.75;;;6.07;;
26696;SDS011;14312;52.614;13.496;2024-03-06T08:43:00;6.63;;;5.90;;
26696;SDS011;14312;52.614;13.496;2024-03-06T08:45:46;6.70;;;5.97;;
26696;SDS011;14312;52.614;13.496;2024-03-06T08:48:32;5.88;;;5.35;;
26696;SDS011;14312;52.614;13.496;2024-03-06T08:51:18;5.55;;;5.03;;
26696;SDS011;14312;52.614;13.496;2024-03-06T08:54:04;5.88;;;5.28;;
26696;SDS011;14312;52.614;13.496;2024-03-06T08:56:50;6.00;;;5.50;;
26696;SDS011;14312;52.614;13.496;2024-03-06T08:59:39;5.78;;;5.18;;
26696;SDS011;14312;52.614;13.496;2024-03-06T09:02:25;5.90;;;5.30;;
26696;SDS011;14312;52.614;13.496;2024-03-06T09:05:11;5.32;;;4.82;;
26696;SDS011;14312;52.614;13.496;2024-03-06T09:07:58;5.82;;;5.22;;
26696;SDS011;14312;52.614;13.496;2024-03-06T09:10:44;5.78;;;5.28;;
26696;SDS011;14312;52.614;13.496;2024-03-06T09:13:30;5.85;;;5.30;;
26696;SDS011;14312;52.614;13.496;2024-03-06T09:16:16;5.32;;;4.82;;
26696;SDS011;14312;52.614;13.496;2024-03-06T09:19:03;6.22;;;5.63;;
26696;SDS011;14312;52.614;13.496;2024-03-06T09:21:49;6.03;;;5.43;;
26696;SDS011;14312;52.614;13.496;2024-03-06T09:24:35;7.05;;;6.30;;
26696;SDS011;14312;52.614;13.496;2024-03-06T09:27:23;6.57;;;5.90;;
26696;SDS011;14312;52.614;13.496;2024-03-06T09:30:09;6.60;;;6.00;;
26696;SDS011;14312;52.614;13.496;2024-03-06T09:32:55;6.85;;;6.15;;
26696;SDS011;14312;52.614;13.496;2024-03-06T09:35:41;6.88;;;6.28;;
26696;SDS011;14312;52.614;13.496;2024-03-06T09:38:30;6.78;;;5.90;;
26696;SDS011;14312;52.614;13.496;2024-03-06T09:41:16;6.78;;;5.93;;
26696;SDS011;14312;52.614;13.496;2024-03-06T09:44:03;6.40;;;5.80;;
26696;SDS011;14312;52.614;13.496;2024-03-06T09:46:49;6.13;;;5.53;;
26696;SDS011;14312;52.614;13.496;2024-03-06T09:49:35;6.40;;;5.80;;
26696;SDS011;14312;52.614;13.496;2024-03-06T09:52:22;6.63;;;6.00;;
26696;SDS011;14312;52.614;13.496;2024-03-06T09:55:12;6.47;;;5.88;;
26696;SDS011;14312;52.614;13.496;2024-03-06T09:58:00;6.40;;;5.82;;
26696;SDS011;14312;52.614;13.496;2024-03-06T10:00:49;5.95;;;5.35;;
26696;SDS011;14312;52.614;13.496;2024-03-06T10:03:37;5.93;;;5.38;;
26696;SDS011;14312;52.614;13.496;2024-03-06T10:06:23;5.95;;;5.30;;
26696;SDS011;14312;52.614;13.496;2024-03-06T10:09:09;6.00;;;5.40;;
26696;SDS011;14312;52.614;13.496;2024-03-06T10:11:55;5.63;;;5.13;;
26696;SDS011;14312;52.614;13.496;2024-03-06T10:14:51;6.30;;;5.70;;
26696;SDS011;14312;52.614;13.496;2024-03-06T10:17:38;5.60;;;5.10;;
26696;SDS011;14312;52.614;13.496;2024-03-06T10:20:24;5.43;;;4.97;;
26696;SDS011;14312;52.614;13.496;2024-03-06T10:23:10;5.18;;;4.68;;
26696;SDS011;14312;52.614;13.496;2024-03-06T10:25:56;5.93;;;5.43;;
26696;SDS011;14312;52.614;13.496;2024-03-06T10:28:44;6.68;;;6.07;;
26696;SDS011;14312;52.614;13.496;2024-03-06T10:31:30;7.00;;;6.38;;
26696;SDS011;14312;52.614;13.496;2024-03-06T10:34:16;7.00;;;6.30;;
26696;SDS011;14312;52.614;13.496;2024-03-06T10:37:03;7.60;;;6.90;;
26696;SDS011;14312;52.614;13.496;2024-03-06T10:39:50;7.30;;;6.60;;
26696;SDS011;14312;52.614;13.496;2024-03-06T10:42:40;7.03;;;6.32;;
26696;SDS011;14312;52.614;13.496;2024-03-06T10:45:48;6.65;;;6.03;;
26696;SDS011;14312;52.614;13.496;2024-03-06T10:48:35;7.38;;;6.68;;
26696;SDS011;14312;52.614;13.496;2024-03-06T10:51:23;8.57;;;7.78;;
26696;SDS011;14312;52.614;13.496;2024-03-06T10:54:09;8.82;;;7.93;;
26696;SDS011;14312;52.614;13.496;2024-03-06T10:56:56;8.50;;;7.70;;
26696;SDS011;14312;52.614;13.496;2024-03-06T10:59:42;9.15;;;8.25;;
26696;SDS011;14312;52.614;13.496;2024-03-06T11:02:29;9.80;;;8.93;;
26696;SDS011;14312;52.614;13.496;2024-03-06T11:05:15;9.93;;;9.02;;
26696;SDS011;14312;52.614;13.496;2024-03-06T11:08:02;9.32;;;8.52;;
26696;SDS011;14312;52.614;13.496;2024-03-06T11:10:48;9.50;;;8.60;;
26696;SDS011;14312;52.614;13.496;2024-03-06T11:13:34;9.48;;;8.57;;
26696;SDS011;14312;52.614;13.496;2024-03-06T11:16:29;9.35;;;8.45;;
26696;SDS011;14312;52.614;13.496;2024-03-06T11:19:18;8.57;;;7.75;;
26696;SDS011;14312;52.614;13.496;2024-03-06T11:22:04;8.45;;;7.68;;
26696;SDS011;14312;52.614;13.496;2024-03-06T11:24:51;8.20;;;7.40;;
26696;SDS011;14312;52.614;13.496;2024-03-06T11:33:53;7.22;;;6.53;;
26696;SDS011;14312;52.614;13.496;2024-03-06T11:36:42;6.35;;;5.75;;
26696;SDS011;14312;52.614;13.496;2024-03-06T11:39:28;7.05;;;6.35;;
26696;SDS011;14312;52.614;13.496;2024-03-06T11:42:16;6.93;;;6.28;;
26696;SDS011;14312;52.614;13.496;2024-03-06T11:45:11;6.68;;;6.07;;
26696;SDS011;14312;52.614;13.496;2024-03-06T11:47:59;6.00;;;5.50;;
26696;SDS011;14312;52.614;13.496;2024-03-06T11:50:47;6.15;;;5.55;;
26696;SDS011;14312;52.614;13.496;2024-03-06T11:53:33;6.47;;;5.88;;
26696;SDS011;14312;52.614;13.496;2024-03-06T11:56:21;6.00;;;5.50;;
26696;SDS011;14312;52.614;13.496;2024-03-06T11:59:07;5.93;;;5.43;;
26696;SDS011;14312;52.614;13.496;2024-03-06T12:01:53;5.55;;;5.05;;
26696;SDS011;14312;52.614;13.496;2024-03-06T12:04:40;5.35;;;4.85;;
26696;SDS011;14312;52.614;13.496;2024-03-06T12:07:27;6.10;;;5.50;;
26696;SDS011;14312;52.614;13.496;2024-03-06T12:10:13;5.32;;;4.82;;
26696;SDS011;14312;52.614;13.496;2024-03-06T12:12:59;5.63;;;5.05;;
26696;SDS011;14312;52.614;13.496;2024-03-06T12:15:45;5.57;;;5.07;;
26696;SDS011;14312;52.614;13.496;2024-03-06T12:18:31;5.93;;;5.35;;
26696;SDS011;14312;52.614;13.496;2024-03-06T12:21:17;6.20;;;5.63;;
26696;SDS011;14312;52.614;13.496;2024-03-06T12:24:09;6.18;;;5.60;;
26696;SDS011;14312;52.614;13.496;2024-03-06T12:27:00;6.47;;;5.88;;
26696;SDS011;14312;52.614;13.496;2024-03-06T12:29:52;7.25;;;6.45;;
26696;SDS011;14312;52.614;13.496;2024-03-06T12:32:39;7.30;;;6.60;;
26696;SDS011;14312;52.614;13.496;2024-03-06T12:35:25;7.63;;;6.90;;
26696;SDS011;14312;52.614;13.496;2024-03-06T12:38:15;6.75;;;6.15;;
26696;SDS011;14312;52.614;13.496;2024-03-06T12:41:01;7.45;;;6.70;;
26696;SDS011;14312;52.614;13.496;2024-03-06T12:43:47;7.47;;;6.65;;
26696;SDS011;14312;52.614;13.496;2024-03-06T12:46:33;8.07;;;7.18;;
26696;SDS011;14312;52.614;13.496;2024-03-06T12:49:19;9.70;;;8.20;;
26696;SDS011;14312;52.614;13.496;2024-03-06T12:52:05;9.88;;;7.82;;
26696;SDS011;14312;52.614;13.496;2024-03-06T12:54:51;10.82;;;7.90;;
26696;SDS011;14312;52.614;13.496;2024-03-06T12:57:37;12.45;;;9.07;;
26696;SDS011;14312;52.614;13.496;2024-03-06T13:00:23;11.35;;;8.27;;
26696;SDS011;14312;52.614;13.496;2024-03-06T13:03:10;10.55;;;9.05;;
26696;SDS011;14312;52.614;13.496;2024-03-06T13:05:56;12.05;;;9.10;;
26696;SDS011;14312;52.614;13.496;2024-03-06T13:08:42;11.30;;;8.98;;
26696;SDS011;14312;52.614;13.496;2024-03-06T13:11:27;10.65;;;8.13;;
26696;SDS011;14312;52.614;13.496;2024-03-06T13:14:13;10.88;;;8.40;;
26696;SDS011;14312;52.614;13.496;2024-03-06T13:16:59;11.75;;;9.30;;
26696;SDS011;14312;52.614;13.496;2024-03-06T13:19:45;12.38;;;10.13;;
26696;SDS011;14312;52.614;13.496;2024-03-06T13:22:31;11.60;;;9.55;;
26696;SDS011;14312;52.614;13.496;2024-03-06T13:25:17;10.77;;;8.85;;
26696;SDS011;14312;52.614;13.496;2024-03-06T13:28:05;11.10;;;8.38;;
26696;SDS011;14312;52.614;13.496;2024-03-06T13:30:51;12.32;;;9.52;;
26696;SDS011;14312;52.614;13.496;2024-03-06T13:33:37;9.90;;;8.73;;
26696;SDS011;14312;52.614;13.496;2024-03-06T13:36:23;10.13;;;7.55;;
26696;SDS011;14312;52.614;13.496;2024-03-06T13:39:09;9.05;;;7.35;;
26696;SDS011;14312;52.614;13.496;2024-03-06T13:41:55;12.35;;;8.63;;
26696;SDS011;14312;52.614;13.496;2024-03-06T13:44:41;12.15;;;9.00;;
26696;SDS011;14312;52.614;13.496;2024-03-06T13:47:27;11.77;;;9.38;;
26696;SDS011;14312;52.614;13.496;2024-03-06T13:50:14;14.55;;;10.07;;
26696;SDS011;14312;52.614;13.496;2024-03-06T13:53:01;16.08;;;10.77;;
26696;SDS011;14312;52.614;13.496;2024-03-06T13:55:47;15.38;;;10.18;;
26696;SDS011;14312;52.614;13.496;2024-03-06T13:58:33;16.23;;;10.82;;
26696;SDS011;14312;52.614;13.496;2024-03-06T14:01:19;15.70;;;11.30;;
26696;SDS011;14312;52.614;13.496;2024-03-06T14:04:05;18.10;;;12.65;;
26696;SDS011;14312;52.614;13.496;2024-03-06T14:06:51;18.35;;;13.55;;
26696;SDS011;14312;52.614;13.496;2024-03-06T14:09:37;21.15;;;14.57;;
26696;SDS011;14312;52.614;13.496;2024-03-06T14:12:23;20.60;;;14.32;;
26696;SDS011;14312;52.614;13.496;2024-03-06T14:15:09;16.67;;;12.15;;
26696;SDS011;14312;52.614;13.496;2024-03-06T14:17:58;17.85;;;12.43;;
26696;SDS011;14312;52.614;13.496;2024-03-06T14:20:43;13.80;;;9.88;;
26696;SDS011;14312;52.614;13.496;2024-03-06T14:23:29;10.70;;;8.57;;
26696;SDS011;14312;52.614;13.496;2024-03-06T14:26:18;10.95;;;8.55;;
26696;SDS011;14312;52.614;13.496;2024-03-06T14:29:05;8.60;;;7.22;;
26696;SDS011;14312;52.614;13.496;2024-03-06T14:31:53;9.02;;;7.43;;
26696;SDS011;14312;52.614;13.496;2024-03-06T14:34:40;8.50;;;7.55;;
26696;SDS011;14312;52.614;13.496;2024-03-06T14:37:25;9.75;;;8.13;;
26696;SDS011;14312;52.614;13.496;2024-03-06T14:40:12;9.90;;;7.93;;
26696;SDS011;14312;52.614;13.496;2024-03-06T14:42:58;12.38;;;9.15;;
26696;SDS011;14312;52.614;13.496;2024-03-06T14:45:44;11.85;;;9.48;;
26696;SDS011;14312;52.614;13.496;2024-03-06T14:48:32;11.07;;;8.90;;
26696;SDS011;14312;52.614;13.496;2024-03-06T14:51:19;10.48;;;8.82;;
26696;SDS011;14312;52.614;13.496;2024-03-06T14:54:05;9.65;;;8.43;;
26696;SDS011;14312;52.614;13.496;2024-03-06T14:56:52;9.48;;;8.07;;
26696;SDS011;14312;52.614;13.496;2024-03-06T14:59:38;10.85;;;8.48;;
26696;SDS011;14312;52.614;13.496;2024-03-06T15:02:24;10.80;;;8.68;;
26696;SDS011;14312;52.614;13.496;2024-03-06T15:05:10;11.60;;;9.45;;
26696;SDS011;14312;52.614;13.496;2024-03-06T15:07:57;9.90;;;8.50;;
26696;SDS011;14312;52.614;13.496;2024-03-06T15:10:44;9.80;;;8.15;;
26696;SDS011;14312;52.614;13.496;2024-03-06T15:13:30;11.73;;;8.38;;
26696;SDS011;14312;52.614;13.496;2024-03-06T15:16:16;9.80;;;7.50;;
26696;SDS011;14312;52.614;13.496;2024-03-06T15:19:02;9.15;;;7.65;;
26696;SDS011;14312;52.614;13.496;2024-03-06T15:21:48;9.38;;;7.00;;
26696;SDS011;14312;52.614;13.496;2024-03-06T15:24:34;8.18;;;7.13;;
26696;SDS011;14312;52.614;13.496;2024-03-06T15:27:20;9.15;;;6.80;;
26696;SDS011;14312;52.614;13.496;2024-03-06T15:30:07;9.02;;;7.22;;
26696;SDS011;14312;52.614;13.496;2024-03-06T15:32:54;9.45;;;7.78;;
26696;SDS011;14312;52.614;13.496;2024-03-06T15:35:40;8.90;;;7.28;;
26696;SDS011;14312;52.614;13.496;2024-03-06T15:38:26;8.27;;;7.47;;
26696;SDS011;14312;52.614;13.496;2024-03-06T15:41:12;7.70;;;7.00;;
26696;SDS011;14312;52.614;13.496;2024-03-06T15:43:58;7.05;;;5.95;;
26696;SDS011;14312;52.614;13.496;2024-03-06T15:46:44;6.38;;;5.70;;
26696;SDS011;14312;52.614;13.496;2024-03-06T15:49:31;6.25;;;5.55;;
26696;SDS011;14312;52.614;13.496;2024-03-06T15:52:17;6.47;;;5.78;;
26696;SDS011;14312;52.614;13.496;2024-03-06T15:55:06;6.82;;;6.13;;
26696;SDS011;14312;52.614;13.496;2024-03-06T15:57:54;6.05;;;5.50;;
26696;SDS011;14312;52.614;13.496;2024-03-06T16:00:41;5.80;;;5.30;;
26696;SDS011;14312;52.614;13.496;2024-03-06T16:03:27;6.07;;;5.55;;
26696;SDS011;14312;52.614;13.496;2024-03-06T16:06:13;5.78;;;5.28;;
26696;SDS011;14312;52.614;13.496;2024-03-06T16:08:59;5.78;;;5.28;;
26696;SDS011;14312;52.614;13.496;2024-03-06T16:11:46;6.22;;;5.68;;
26696;SDS011;14312;52.614;13.496;2024-03-06T16:14:32;6.07;;;5.45;;
26696;SDS011;14312;52.614;13.496;2024-03-06T16:17:18;6.28;;;5.68;;
26696;SDS011;14312;52.614;13.496;2024-03-06T16:20:04;6.70;;;6.00;;
26696;SDS011;14312;52.614;13.496;2024-03-06T16:22:51;6.18;;;5.57;;
26696;SDS011;14312;52.614;13.496;2024-03-06T16:25:37;5.80;;;5.30;;
26696;SDS011;14312;52.614;13.496;2024-03-06T16:28:23;5.28;;;4.82;;
26696;SDS011;14312;52.614;13.496;2024-03-06T16:31:09;6.13;;;5.60;;
26696;SDS011;14312;52.614;13.496;2024-03-06T16:33:55;5.97;;;5.47;;